sensor_id;sensor_type;location;lat;lon;timestamp;temperature;humidity
2729;DHT22;1372;47.956;7.830;2023-07-13T00:01:48;20.60;99.90
2729;DHT22;1372;47.956;7.830;2023-07-13T00:04:19;20.50;99.90
2729;DHT22;1372;47.956;7.830;2023-07-13T00:06:52;20.50;99.90
2729;DHT22;1372;47.956;7.830;2023-07-13T00:09:22;20.60;99.90
2729;DHT22;1372;47.956;7.830;2023-07-13T00:11:52;20.60;99.90
2729;DHT22;1372;47.956;7.830;2023-07-13T00:14:23;20.70;99.90
2729;DHT22;1372;47.956;7.830;2023-07-13T00:16:55;20.70;99.90
2729;DHT22;1372;47.956;7.830;2023-07-13T00:19:28;20.70;99.90
2729;DHT22;1372;47.956;7.830;2023-07-13T00:21:58;20.70;99.90
2729;DHT22;1372;47.956;7.830;2023-07-13T00:24:27;20.80;99.90
2729;DHT22;1372;47.956;7.830;2023-07-13T00:26:57;20.70;99.90
2729;DHT22;1372;47.956;7.830;2023-07-13T00:29:26;20.60;99.90
2729;DHT22;1372;47.956;7.830;2023-07-13T00:31:59;20.60;99.90
2729;DHT22;1372;47.956;7.830;2023-07-13T00:34:31;20.60;99.90
2729;DHT22;1372;47.956;7.830;2023-07-13T00:37:01;20.60;99.90
2729;DHT22;1372;47.956;7.830;2023-07-13T00:39:31;20.60;99.90
2729;DHT22;1372;47.956;7.830;2023-07-13T00:42:03;20.60;99.90
2729;DHT22;1372;47.956;7.830;2023-07-13T00:44:32;20.50;99.90
2729;DHT22;1372;47.956;7.830;2023-07-13T00:47:01;20.50;99.90
2729;DHT22;1372;47.956;7.830;2023-07-13T00:49:32;20.50;99.90
2729;DHT22;1372;47.956;7.830;2023-07-13T00:52:06;20.50;99.90
2729;DHT22;1372;47.956;7.830;2023-07-13T00:54:38;20.50;99.90
2729;DHT22;1372;47.956;7.830;2023-07-13T00:57:14;20.40;99.90
2729;DHT22;1372;47.956;7.830;2023-07-13T00:59:50;20.40;99.90
2729;DHT22;1372;47.956;7.830;2023-07-13T01:02:21;20.40;99.90
2729;DHT22;1372;47.956;7.830;2023-07-13T01:04:51;20.20;99.90
2729;DHT22;1372;47.956;7.830;2023-07-13T01:07:21;20.10;99.90
2729;DHT22;1372;47.956;7.830;2023-07-13T01:09:50;19.90;99.90
2729;DHT22;1372;47.956;7.830;2023-07-13T01:12:19;19.90;99.90
2729;DHT22;1372;47.956;7.830;2023-07-13T01:14:48;19.90;99.90
2729;DHT22;1372;47.956;7.830;2023-07-13T01:17:19;19.80;99.90
2729;DHT22;1372;47.956;7.830;2023-07-13T01:19:51;19.70;99.90
2729;DHT22;1372;47.956;7.830;2023-07-13T01:22:21;19.70;99.90
2729;DHT22;1372;47.956;7.830;2023-07-13T01:24:55;19.70;99.90
2729;DHT22;1372;47.956;7.830;2023-07-13T01:27:25;19.70;99.90
2729;DHT22;1372;47.956;7.830;2023-07-13T01:29:55;19.60;99.90
2729;DHT22;1372;47.956;7.830;2023-07-13T01:32:29;19.50;99.90
2729;DHT22;1372;47.956;7.830;2023-07-13T01:35:00;19.40;99.90
2729;DHT22;1372;47.956;7.830;2023-07-13T01:37:30;19.50;99.90
2729;DHT22;1372;47.956;7.830;2023-07-13T01:40:01;19.40;99.90
2729;DHT22;1372;47.956;7.830;2023-07-13T01:42:31;19.30;99.90
2729;DHT22;1372;47.956;7.830;2023-07-13T01:45:00;19.30;99.90
2729;DHT22;1372;47.956;7.830;2023-07-13T01:47:29;19.20;99.90
2729;DHT22;1372;47.956;7.830;2023-07-13T01:49:59;19.20;99.90
2729;DHT22;1372;47.956;7.830;2023-07-13T01:52:27;19.20;99.90
2729;DHT22;1372;47.956;7.830;2023-07-13T01:55:00;19.20;99.90
2729;DHT22;1372;47.956;7.830;2023-07-13T01:57:29;19.20;99.90
2729;DHT22;1372;47.956;7.830;2023-07-13T01:59:58;19.10;99.90
2729;DHT22;1372;47.956;7.830;2023-07-13T02:02:27;19.10;99.90
2729;DHT22;1372;47.956;7.830;2023-07-13T02:04:55;19.10;99.90
2729;DHT22;1372;47.956;7.830;2023-07-13T02:07:24;19.10;99.90
2729;DHT22;1372;47.956;7.830;2023-07-13T02:09:54;19.10;99.90
2729;DHT22;1372;47.956;7.830;2023-07-13T02:12:23;19.10;99.90
2729;DHT22;1372;47.956;7.830;2023-07-13T02:14:55;19.10;99.90
2729;DHT22;1372;47.956;7.830;2023-07-13T02:17:23;19.00;99.90
2729;DHT22;1372;47.956;7.830;2023-07-13T02:19:52;18.90;99.90
2729;DHT22;1372;47.956;7.830;2023-07-13T02:22:22;19.00;99.90
2729;DHT22;1372;47.956;7.830;2023-07-13T02:24:51;19.00;99.90
2729;DHT22;1372;47.956;7.830;2023-07-13T02:27:21;18.90;99.90
2729;DHT22;1372;47.956;7.830;2023-07-13T02:29:50;18.80;99.90
2729;DHT22;1372;47.956;7.830;2023-07-13T02:32:19;18.90;99.90
2729;DHT22;1372;47.956;7.830;2023-07-13T02:34:48;18.90;99.90
2729;DHT22;1372;47.956;7.830;2023-07-13T02:37:17;18.80;99.90
2729;DHT22;1372;47.956;7.830;2023-07-13T02:39:48;18.70;99.90
2729;DHT22;1372;47.956;7.830;2023-07-13T02:42:16;18.70;99.90
2729;DHT22;1372;47.956;7.830;2023-07-13T02:44:47;18.70;99.90
2729;DHT22;1372;47.956;7.830;2023-07-13T02:47:17;18.70;99.90
2729;DHT22;1372;47.956;7.830;2023-07-13T02:49:46;18.70;99.90
2729;DHT22;1372;47.956;7.830;2023-07-13T02:52:14;18.60;99.90
2729;DHT22;1372;47.956;7.830;2023-07-13T02:54:43;18.50;99.90
2729;DHT22;1372;47.956;7.830;2023-07-13T02:57:12;18.40;99.90
2729;DHT22;1372;47.956;7.830;2023-07-13T02:59:43;18.30;99.90
2729;DHT22;1372;47.956;7.830;2023-07-13T03:02:13;18.30;99.90
2729;DHT22;1372;47.956;7.830;2023-07-13T03:04:42;18.30;99.90
2729;DHT22;1372;47.956;7.830;2023-07-13T03:07:11;18.40;99.90
2729;DHT22;1372;47.956;7.830;2023-07-13T03:09:41;18.40;99.90
2729;DHT22;1372;47.956;7.830;2023-07-13T03:12:12;18.40;99.90
2729;DHT22;1372;47.956;7.830;2023-07-13T03:14:40;18.40;99.90
2729;DHT22;1372;47.956;7.830;2023-07-13T03:17:09;18.30;99.90
2729;DHT22;1372;47.956;7.830;2023-07-13T03:19:40;18.20;99.90
2729;DHT22;1372;47.956;7.830;2023-07-13T03:22:09;18.20;99.90
2729;DHT22;1372;47.956;7.830;2023-07-13T03:24:37;18.10;99.90
2729;DHT22;1372;47.956;7.830;2023-07-13T03:27:06;18.20;99.90
2729;DHT22;1372;47.956;7.830;2023-07-13T03:29:36;18.20;99.90
2729;DHT22;1372;47.956;7.830;2023-07-13T03:32:07;18.20;99.90
2729;DHT22;1372;47.956;7.830;2023-07-13T03:34:40;18.10;99.90
2729;DHT22;1372;47.956;7.830;2023-07-13T03:37:09;18.10;99.90
2729;DHT22;1372;47.956;7.830;2023-07-13T03:39:38;18.00;99.90
2729;DHT22;1372;47.956;7.830;2023-07-13T03:42:07;18.00;99.90
2729;DHT22;1372;47.956;7.830;2023-07-13T03:44:38;18.00;99.90
2729;DHT22;1372;47.956;7.830;2023-07-13T03:47:07;18.00;99.90
2729;DHT22;1372;47.956;7.830;2023-07-13T03:49:36;18.00;99.90
2729;DHT22;1372;47.956;7.830;2023-07-13T03:52:07;17.90;99.90
2729;DHT22;1372;47.956;7.830;2023-07-13T03:54:37;17.90;99.90
2729;DHT22;1372;47.956;7.830;2023-07-13T03:57:09;17.90;99.90
2729;DHT22;1372;47.956;7.830;2023-07-13T03:59:37;17.90;99.90
2729;DHT22;1372;47.956;7.830;2023-07-13T04:02:06;17.80;99.90
2729;DHT22;1372;47.956;7.830;2023-07-13T04:04:36;17.80;99.90
2729;DHT22;1372;47.956;7.830;2023-07-13T04:07:09;17.80;99.90
2729;DHT22;1372;47.956;7.830;2023-07-13T04:09:38;17.80;99.90
2729;DHT22;1372;47.956;7.830;2023-07-13T04:12:07;17.80;99.90
2729;DHT22;1372;47.956;7.830;2023-07-13T04:14:37;17.90;99.90
2729;DHT22;1372;47.956;7.830;2023-07-13T04:17:06;18.00;99.90
2729;DHT22;1372;47.956;7.830;2023-07-13T04:19:38;18.00;99.90
2729;DHT22;1372;47.956;7.830;2023-07-13T04:22:08;18.10;99.90
2729;DHT22;1372;47.956;7.830;2023-07-13T04:24:37;18.10;99.90
2729;DHT22;1372;47.956;7.830;2023-07-13T04:27:07;18.10;99.90
2729;DHT22;1372;47.956;7.830;2023-07-13T04:29:35;18.10;99.90
2729;DHT22;1372;47.956;7.830;2023-07-13T04:32:05;18.10;99.90
2729;DHT22;1372;47.956;7.830;2023-07-13T04:34:37;18.10;99.90
2729;DHT22;1372;47.956;7.830;2023-07-13T04:37:06;18.10;99.90
2729;DHT22;1372;47.956;7.830;2023-07-13T04:39:37;18.10;99.90
2729;DHT22;1372;47.956;7.830;2023-07-13T04:42:08;18.10;99.90
2729;DHT22;1372;47.956;7.830;2023-07-13T04:44:37;18.20;99.90
2729;DHT22;1372;47.956;7.830;2023-07-13T04:47:07;18.10;99.90
2729;DHT22;1372;47.956;7.830;2023-07-13T04:49:36;18.10;99.90
2729;DHT22;1372;47.956;7.830;2023-07-13T04:52:06;18.10;99.90
2729;DHT22;1372;47.956;7.830;2023-07-13T04:54:37;18.10;99.90
2729;DHT22;1372;47.956;7.830;2023-07-13T04:57:06;18.10;99.90
2729;DHT22;1372;47.956;7.830;2023-07-13T04:59:35;18.10;99.90
2729;DHT22;1372;47.956;7.830;2023-07-13T05:02:04;18.10;99.90
2729;DHT22;1372;47.956;7.830;2023-07-13T05:04:34;18.10;99.90
2729;DHT22;1372;47.956;7.830;2023-07-13T05:07:02;18.10;99.90
2729;DHT22;1372;47.956;7.830;2023-07-13T05:09:32;18.10;99.90
2729;DHT22;1372;47.956;7.830;2023-07-13T05:12:02;18.10;99.90
2729;DHT22;1372;47.956;7.830;2023-07-13T05:14:32;18.20;99.90
2729;DHT22;1372;47.956;7.830;2023-07-13T05:17:00;18.20;99.90
2729;DHT22;1372;47.956;7.830;2023-07-13T05:19:30;18.20;99.90
2729;DHT22;1372;47.956;7.830;2023-07-13T05:22:01;18.20;99.90
2729;DHT22;1372;47.956;7.830;2023-07-13T05:24:34;18.20;99.90
2729;DHT22;1372;47.956;7.830;2023-07-13T05:27:05;18.20;99.90
2729;DHT22;1372;47.956;7.830;2023-07-13T05:29:36;18.20;99.90
2729;DHT22;1372;47.956;7.830;2023-07-13T05:32:06;18.20;99.90
2729;DHT22;1372;47.956;7.830;2023-07-13T05:34:35;18.40;99.90
2729;DHT22;1372;47.956;7.830;2023-07-13T05:37:05;18.50;99.90
2729;DHT22;1372;47.956;7.830;2023-07-13T05:39:34;18.60;99.90
2729;DHT22;1372;47.956;7.830;2023-07-13T05:42:05;18.60;99.90
2729;DHT22;1372;47.956;7.830;2023-07-13T05:44:34;18.60;99.90
2729;DHT22;1372;47.956;7.830;2023-07-13T05:47:05;18.60;99.90
2729;DHT22;1372;47.956;7.830;2023-07-13T05:49:35;18.80;99.90
2729;DHT22;1372;47.956;7.830;2023-07-13T05:52:04;18.80;99.90
2729;DHT22;1372;47.956;7.830;2023-07-13T05:54:34;18.90;99.90
2729;DHT22;1372;47.956;7.830;2023-07-13T05:57:05;18.90;99.90
2729;DHT22;1372;47.956;7.830;2023-07-13T05:59:35;19.10;99.90
2729;DHT22;1372;47.956;7.830;2023-07-13T06:02:05;19.10;99.90
2729;DHT22;1372;47.956;7.830;2023-07-13T06:04:38;19.10;99.90
2729;DHT22;1372;47.956;7.830;2023-07-13T06:07:07;19.10;99.90
2729;DHT22;1372;47.956;7.830;2023-07-13T06:09:36;19.10;99.90
2729;DHT22;1372;47.956;7.830;2023-07-13T06:12:11;19.10;99.90
2729;DHT22;1372;47.956;7.830;2023-07-13T06:14:42;19.20;99.90
2729;DHT22;1372;47.956;7.830;2023-07-13T06:17:14;19.30;99.90
2729;DHT22;1372;47.956;7.830;2023-07-13T06:19:44;19.30;99.90
2729;DHT22;1372;47.956;7.830;2023-07-13T06:22:13;19.40;99.90
2729;DHT22;1372;47.956;7.830;2023-07-13T06:24:42;19.50;99.90
2729;DHT22;1372;47.956;7.830;2023-07-13T06:27:15;19.60;99.90
2729;DHT22;1372;47.956;7.830;2023-07-13T06:29:44;19.60;99.90
2729;DHT22;1372;47.956;7.830;2023-07-13T06:32:13;19.60;99.90
2729;DHT22;1372;47.956;7.830;2023-07-13T06:34:42;19.70;99.90
2729;DHT22;1372;47.956;7.830;2023-07-13T06:37:11;19.80;99.90
2729;DHT22;1372;47.956;7.830;2023-07-13T06:39:40;19.90;99.90
2729;DHT22;1372;47.956;7.830;2023-07-13T06:42:09;20.00;99.90
2729;DHT22;1372;47.956;7.830;2023-07-13T06:44:42;20.10;99.90
2729;DHT22;1372;47.956;7.830;2023-07-13T06:47:11;20.10;99.90
2729;DHT22;1372;47.956;7.830;2023-07-13T06:49:42;20.10;99.90
2729;DHT22;1372;47.956;7.830;2023-07-13T06:52:14;20.10;99.90
2729;DHT22;1372;47.956;7.830;2023-07-13T06:54:42;20.10;99.90
2729;DHT22;1372;47.956;7.830;2023-07-13T06:57:14;20.20;99.90
2729;DHT22;1372;47.956;7.830;2023-07-13T06:59:45;20.20;99.90
2729;DHT22;1372;47.956;7.830;2023-07-13T07:02:14;20.20;99.90
2729;DHT22;1372;47.956;7.830;2023-07-13T07:04:43;20.20;99.90
2729;DHT22;1372;47.956;7.830;2023-07-13T07:07:12;20.30;99.90
2729;DHT22;1372;47.956;7.830;2023-07-13T07:09:42;20.30;99.90
2729;DHT22;1372;47.956;7.830;2023-07-13T07:12:16;20.40;99.90
2729;DHT22;1372;47.956;7.830;2023-07-13T07:14:47;20.50;99.90
2729;DHT22;1372;47.956;7.830;2023-07-13T07:17:16;20.70;99.90
2729;DHT22;1372;47.956;7.830;2023-07-13T07:19:45;20.70;99.90
2729;DHT22;1372;47.956;7.830;2023-07-13T07:22:14;20.70;99.90
2729;DHT22;1372;47.956;7.830;2023-07-13T07:24:43;20.80;99.90
2729;DHT22;1372;47.956;7.830;2023-07-13T07:27:14;20.80;99.90
2729;DHT22;1372;47.956;7.830;2023-07-13T07:29:48;20.90;99.90
2729;DHT22;1372;47.956;7.830;2023-07-13T07:32:37;20.80;99.90
2729;DHT22;1372;47.956;7.830;2023-07-13T07:35:25;20.90;99.90
2729;DHT22;1372;47.956;7.830;2023-07-13T07:37:55;21.00;99.90
2729;DHT22;1372;47.956;7.830;2023-07-13T07:40:24;21.10;99.90
2729;DHT22;1372;47.956;7.830;2023-07-13T07:42:57;21.20;99.90
2729;DHT22;1372;47.956;7.830;2023-07-13T07:45:27;21.10;99.90
2729;DHT22;1372;47.956;7.830;2023-07-13T07:47:58;21.20;99.90
2729;DHT22;1372;47.956;7.830;2023-07-13T07:50:30;21.10;99.90
2729;DHT22;1372;47.956;7.830;2023-07-13T07:52:59;21.20;99.90
2729;DHT22;1372;47.956;7.830;2023-07-13T07:55:33;21.30;99.90
2729;DHT22;1372;47.956;7.830;2023-07-13T07:58:06;21.30;99.90
2729;DHT22;1372;47.956;7.830;2023-07-13T08:01:02;21.40;99.90
2729;DHT22;1372;47.956;7.830;2023-07-13T08:03:35;21.50;99.90
2729;DHT22;1372;47.956;7.830;2023-07-13T08:06:06;21.60;99.90
2729;DHT22;1372;47.956;7.830;2023-07-13T08:08:38;21.60;99.90
2729;DHT22;1372;47.956;7.830;2023-07-13T08:11:08;21.50;99.90
2729;DHT22;1372;47.956;7.830;2023-07-13T08:13:40;21.50;99.90
2729;DHT22;1372;47.956;7.830;2023-07-13T08:16:11;21.60;99.90
2729;DHT22;1372;47.956;7.830;2023-07-13T08:18:39;21.60;99.90
2729;DHT22;1372;47.956;7.830;2023-07-13T08:21:09;21.60;99.90
2729;DHT22;1372;47.956;7.830;2023-07-13T08:23:40;21.70;99.90
2729;DHT22;1372;47.956;7.830;2023-07-13T08:26:09;21.70;99.90
2729;DHT22;1372;47.956;7.830;2023-07-13T08:28:41;21.70;99.90
2729;DHT22;1372;47.956;7.830;2023-07-13T08:31:12;21.70;99.90
2729;DHT22;1372;47.956;7.830;2023-07-13T08:33:43;21.80;99.90
2729;DHT22;1372;47.956;7.830;2023-07-13T08:36:12;21.90;99.90
2729;DHT22;1372;47.956;7.830;2023-07-13T08:38:41;22.00;99.90
2729;DHT22;1372;47.956;7.830;2023-07-13T08:41:15;22.10;99.90
2729;DHT22;1372;47.956;7.830;2023-07-13T08:43:47;22.10;99.90
2729;DHT22;1372;47.956;7.830;2023-07-13T08:46:23;22.20;99.90
2729;DHT22;1372;47.956;7.830;2023-07-13T08:48:57;22.10;99.90
2729;DHT22;1372;47.956;7.830;2023-07-13T08:51:38;22.20;99.90
2729;DHT22;1372;47.956;7.830;2023-07-13T08:54:19;22.20;99.90
2729;DHT22;1372;47.956;7.830;2023-07-13T08:56:54;22.20;99.90
2729;DHT22;1372;47.956;7.830;2023-07-13T08:59:26;22.20;99.90
2729;DHT22;1372;47.956;7.830;2023-07-13T09:02:19;22.20;99.90
2729;DHT22;1372;47.956;7.830;2023-07-13T09:04:58;22.20;99.90
2729;DHT22;1372;47.956;7.830;2023-07-13T09:07:42;22.30;99.90
2729;DHT22;1372;47.956;7.830;2023-07-13T09:10:30;22.40;99.90
2729;DHT22;1372;47.956;7.830;2023-07-13T09:13:13;22.60;99.90
2729;DHT22;1372;47.956;7.830;2023-07-13T09:15:49;22.60;99.90
2729;DHT22;1372;47.956;7.830;2023-07-13T09:18:27;22.60;99.90
2729;DHT22;1372;47.956;7.830;2023-07-13T09:21:05;22.70;99.90
2729;DHT22;1372;47.956;7.830;2023-07-13T09:23:44;22.70;99.90
2729;DHT22;1372;47.956;7.830;2023-07-13T09:26:18;22.70;99.90
2729;DHT22;1372;47.956;7.830;2023-07-13T09:28:51;22.80;99.90
2729;DHT22;1372;47.956;7.830;2023-07-13T09:31:26;22.90;99.90
2729;DHT22;1372;47.956;7.830;2023-07-13T09:34:00;22.90;99.90
2729;DHT22;1372;47.956;7.830;2023-07-13T09:36:32;22.80;99.90
2729;DHT22;1372;47.956;7.830;2023-07-13T09:39:05;22.90;99.90
2729;DHT22;1372;47.956;7.830;2023-07-13T09:41:47;22.90;99.90
2729;DHT22;1372;47.956;7.830;2023-07-13T09:44:28;22.90;99.90
2729;DHT22;1372;47.956;7.830;2023-07-13T09:46:59;22.90;99.90
2729;DHT22;1372;47.956;7.830;2023-07-13T09:49:35;22.90;99.90
2729;DHT22;1372;47.956;7.830;2023-07-13T09:52:10;22.90;99.90
2729;DHT22;1372;47.956;7.830;2023-07-13T09:54:44;22.90;99.90
2729;DHT22;1372;47.956;7.830;2023-07-13T09:57:19;23.00;99.90
2729;DHT22;1372;47.956;7.830;2023-07-13T09:59:57;23.10;99.90
2729;DHT22;1372;47.956;7.830;2023-07-13T10:02:29;23.20;99.90
2729;DHT22;1372;47.956;7.830;2023-07-13T10:05:04;23.20;99.90
2729;DHT22;1372;47.956;7.830;2023-07-13T10:07:43;23.20;99.90
2729;DHT22;1372;47.956;7.830;2023-07-13T10:10:20;23.10;99.90
2729;DHT22;1372;47.956;7.830;2023-07-13T10:12:53;23.00;99.90
2729;DHT22;1372;47.956;7.830;2023-07-13T10:15:24;23.00;99.90
2729;DHT22;1372;47.956;7.830;2023-07-13T10:17:54;22.90;99.90
2729;DHT22;1372;47.956;7.830;2023-07-13T10:20:27;23.00;99.90
2729;DHT22;1372;47.956;7.830;2023-07-13T10:22:59;23.00;99.90
2729;DHT22;1372;47.956;7.830;2023-07-13T10:25:33;23.10;99.90
2729;DHT22;1372;47.956;7.830;2023-07-13T10:28:09;23.20;99.90
2729;DHT22;1372;47.956;7.830;2023-07-13T10:30:46;23.20;99.90
2729;DHT22;1372;47.956;7.830;2023-07-13T10:33:16;23.40;99.90
2729;DHT22;1372;47.956;7.830;2023-07-13T10:35:46;23.50;99.90
2729;DHT22;1372;47.956;7.830;2023-07-13T10:38:20;23.60;99.90
2729;DHT22;1372;47.956;7.830;2023-07-13T10:40:58;23.70;99.90
2729;DHT22;1372;47.956;7.830;2023-07-13T10:43:34;23.50;99.90
2729;DHT22;1372;47.956;7.830;2023-07-13T10:46:06;23.50;99.90
2729;DHT22;1372;47.956;7.830;2023-07-13T10:48:41;23.60;99.90
2729;DHT22;1372;47.956;7.830;2023-07-13T10:51:14;23.80;99.90
2729;DHT22;1372;47.956;7.830;2023-07-13T10:53:45;23.90;99.90
2729;DHT22;1372;47.956;7.830;2023-07-13T10:56:22;24.00;99.90
2729;DHT22;1372;47.956;7.830;2023-07-13T10:59:05;24.00;99.90
2729;DHT22;1372;47.956;7.830;2023-07-13T11:01:41;24.20;99.90
2729;DHT22;1372;47.956;7.830;2023-07-13T11:04:19;24.30;99.90
2729;DHT22;1372;47.956;7.830;2023-07-13T11:06:56;24.30;99.90
2729;DHT22;1372;47.956;7.830;2023-07-13T11:09:37;24.20;99.90
2729;DHT22;1372;47.956;7.830;2023-07-13T11:12:27;24.20;99.90
2729;DHT22;1372;47.956;7.830;2023-07-13T11:15:31;24.10;99.90
2729;DHT22;1372;47.956;7.830;2023-07-13T11:18:20;24.10;99.90
2729;DHT22;1372;47.956;7.830;2023-07-13T11:21:12;23.90;99.90
2729;DHT22;1372;47.956;7.830;2023-07-13T11:24:04;23.80;99.90
2729;DHT22;1372;47.956;7.830;2023-07-13T11:26:51;23.90;99.90
2729;DHT22;1372;47.956;7.830;2023-07-13T11:29:25;24.00;99.90
2729;DHT22;1372;47.956;7.830;2023-07-13T11:31:57;24.20;99.90
2729;DHT22;1372;47.956;7.830;2023-07-13T11:34:30;24.40;99.90
2729;DHT22;1372;47.956;7.830;2023-07-13T11:37:01;24.40;99.90
2729;DHT22;1372;47.956;7.830;2023-07-13T11:39:33;24.40;99.90
2729;DHT22;1372;47.956;7.830;2023-07-13T11:42:05;24.60;99.90
2729;DHT22;1372;47.956;7.830;2023-07-13T11:44:43;24.70;99.90
2729;DHT22;1372;47.956;7.830;2023-07-13T11:47:32;24.70;99.90
2729;DHT22;1372;47.956;7.830;2023-07-13T11:50:01;24.80;99.90
2729;DHT22;1372;47.956;7.830;2023-07-13T11:52:33;24.90;99.90
2729;DHT22;1372;47.956;7.830;2023-07-13T11:55:14;24.90;99.90
2729;DHT22;1372;47.956;7.830;2023-07-13T11:57:47;25.00;99.90
2729;DHT22;1372;47.956;7.830;2023-07-13T12:00:22;25.00;99.90
2729;DHT22;1372;47.956;7.830;2023-07-13T12:02:57;25.00;99.90
2729;DHT22;1372;47.956;7.830;2023-07-13T12:05:29;24.80;99.90
2729;DHT22;1372;47.956;7.830;2023-07-13T12:07:59;24.70;99.90
2729;DHT22;1372;47.956;7.830;2023-07-13T12:10:56;24.70;99.90
2729;DHT22;1372;47.956;7.830;2023-07-13T12:13:28;24.90;99.90
2729;DHT22;1372;47.956;7.830;2023-07-13T12:15:57;24.90;99.90
2729;DHT22;1372;47.956;7.830;2023-07-13T12:18:29;24.70;99.90
2729;DHT22;1372;47.956;7.830;2023-07-13T12:21:01;24.70;99.90
2729;DHT22;1372;47.956;7.830;2023-07-13T12:23:33;25.00;99.90
2729;DHT22;1372;47.956;7.830;2023-07-13T12:26:05;25.10;99.90
2729;DHT22;1372;47.956;7.830;2023-07-13T12:28:39;25.20;99.90
2729;DHT22;1372;47.956;7.830;2023-07-13T12:31:32;25.00;99.90
2729;DHT22;1372;47.956;7.830;2023-07-13T12:34:07;25.10;99.90
2729;DHT22;1372;47.956;7.830;2023-07-13T12:36:46;24.90;99.90
2729;DHT22;1372;47.956;7.830;2023-07-13T12:39:19;25.00;99.90
2729;DHT22;1372;47.956;7.830;2023-07-13T12:41:53;25.30;99.90
2729;DHT22;1372;47.956;7.830;2023-07-13T12:44:27;25.50;99.90
2729;DHT22;1372;47.956;7.830;2023-07-13T12:47:06;25.50;99.90
2729;DHT22;1372;47.956;7.830;2023-07-13T12:49:41;25.50;99.90
2729;DHT22;1372;47.956;7.830;2023-07-13T12:52:15;25.40;99.90
2729;DHT22;1372;47.956;7.830;2023-07-13T12:54:55;25.20;99.90
2729;DHT22;1372;47.956;7.830;2023-07-13T12:57:38;25.00;99.90
2729;DHT22;1372;47.956;7.830;2023-07-13T13:00:22;24.80;99.90
2729;DHT22;1372;47.956;7.830;2023-07-13T13:02:54;24.80;99.90
2729;DHT22;1372;47.956;7.830;2023-07-13T13:05:42;24.80;99.90
2729;DHT22;1372;47.956;7.830;2023-07-13T13:08:13;25.20;99.90
2729;DHT22;1372;47.956;7.830;2023-07-13T13:10:42;25.50;99.90
2729;DHT22;1372;47.956;7.830;2023-07-13T13:13:14;25.80;99.90
2729;DHT22;1372;47.956;7.830;2023-07-13T13:15:43;26.00;99.90
2729;DHT22;1372;47.956;7.830;2023-07-13T13:18:22;26.20;99.90
2729;DHT22;1372;47.956;7.830;2023-07-13T13:20:52;26.20;99.90
2729;DHT22;1372;47.956;7.830;2023-07-13T13:23:21;26.30;99.90
2729;DHT22;1372;47.956;7.830;2023-07-13T13:25:53;26.40;99.90
2729;DHT22;1372;47.956;7.830;2023-07-13T13:28:24;26.50;99.90
2729;DHT22;1372;47.956;7.830;2023-07-13T13:30:54;26.50;99.90
2729;DHT22;1372;47.956;7.830;2023-07-13T13:33:23;26.60;99.90
2729;DHT22;1372;47.956;7.830;2023-07-13T13:35:51;26.50;99.90
2729;DHT22;1372;47.956;7.830;2023-07-13T13:38:25;26.00;99.90
2729;DHT22;1372;47.956;7.830;2023-07-13T13:40:55;25.80;99.90
2729;DHT22;1372;47.956;7.830;2023-07-13T13:43:27;25.50;99.90
2729;DHT22;1372;47.956;7.830;2023-07-13T13:45:58;25.40;99.90
2729;DHT22;1372;47.956;7.830;2023-07-13T13:48:31;25.20;99.90
2729;DHT22;1372;47.956;7.830;2023-07-13T13:51:06;25.10;99.90
2729;DHT22;1372;47.956;7.830;2023-07-13T13:53:42;25.00;99.90
2729;DHT22;1372;47.956;7.830;2023-07-13T13:56:12;25.00;99.90
2729;DHT22;1372;47.956;7.830;2023-07-13T13:58:43;24.90;99.90
2729;DHT22;1372;47.956;7.830;2023-07-13T14:01:13;24.90;99.90
2729;DHT22;1372;47.956;7.830;2023-07-13T14:03:50;24.90;99.90
2729;DHT22;1372;47.956;7.830;2023-07-13T14:06:20;25.10;99.90
2729;DHT22;1372;47.956;7.830;2023-07-13T14:08:49;25.20;99.90
2729;DHT22;1372;47.956;7.830;2023-07-13T14:11:20;25.20;99.90
2729;DHT22;1372;47.956;7.830;2023-07-13T14:13:53;25.10;99.90
2729;DHT22;1372;47.956;7.830;2023-07-13T14:16:27;25.10;99.90
2729;DHT22;1372;47.956;7.830;2023-07-13T14:18:59;24.90;99.90
2729;DHT22;1372;47.956;7.830;2023-07-13T14:21:30;24.80;99.90
2729;DHT22;1372;47.956;7.830;2023-07-13T14:23:59;24.70;99.90
2729;DHT22;1372;47.956;7.830;2023-07-13T14:26:35;24.60;99.90
2729;DHT22;1372;47.956;7.830;2023-07-13T14:29:12;24.60;99.90
2729;DHT22;1372;47.956;7.830;2023-07-13T14:31:44;24.50;99.90
2729;DHT22;1372;47.956;7.830;2023-07-13T14:34:14;24.50;99.90
2729;DHT22;1372;47.956;7.830;2023-07-13T14:36:44;24.60;99.90
2729;DHT22;1372;47.956;7.830;2023-07-13T14:39:18;24.50;99.90
2729;DHT22;1372;47.956;7.830;2023-07-13T14:41:51;24.50;99.90
2729;DHT22;1372;47.956;7.830;2023-07-13T14:44:25;24.50;99.90
2729;DHT22;1372;47.956;7.830;2023-07-13T14:46:57;24.60;99.90
2729;DHT22;1372;47.956;7.830;2023-07-13T14:49:29;24.60;99.90
2729;DHT22;1372;47.956;7.830;2023-07-13T14:52:01;24.50;99.90
2729;DHT22;1372;47.956;7.830;2023-07-13T14:54:31;24.40;99.90
2729;DHT22;1372;47.956;7.830;2023-07-13T14:57:00;24.30;99.90
2729;DHT22;1372;47.956;7.830;2023-07-13T14:59:30;24.30;99.90
2729;DHT22;1372;47.956;7.830;2023-07-13T15:02:01;24.30;99.90
2729;DHT22;1372;47.956;7.830;2023-07-13T15:04:30;24.30;99.90
2729;DHT22;1372;47.956;7.830;2023-07-13T15:07:01;24.30;99.90
2729;DHT22;1372;47.956;7.830;2023-07-13T15:09:31;24.30;99.90
2729;DHT22;1372;47.956;7.830;2023-07-13T15:12:00;24.30;99.90
2729;DHT22;1372;47.956;7.830;2023-07-13T15:14:30;24.30;99.90
2729;DHT22;1372;47.956;7.830;2023-07-13T15:17:00;24.40;99.90
2729;DHT22;1372;47.956;7.830;2023-07-13T15:19:29;24.80;99.90
2729;DHT22;1372;47.956;7.830;2023-07-13T15:21:59;25.20;99.90
2729;DHT22;1372;47.956;7.830;2023-07-13T15:24:29;25.50;99.90
2729;DHT22;1372;47.956;7.830;2023-07-13T15:26:59;25.60;99.90
2729;DHT22;1372;47.956;7.830;2023-07-13T15:29:28;25.70;99.90
2729;DHT22;1372;47.956;7.830;2023-07-13T15:31:58;25.50;99.90
2729;DHT22;1372;47.956;7.830;2023-07-13T15:34:27;25.50;99.90
2729;DHT22;1372;47.956;7.830;2023-07-13T15:36:56;25.60;99.90
2729;DHT22;1372;47.956;7.830;2023-07-13T15:39:27;25.70;99.90
2729;DHT22;1372;47.956;7.830;2023-07-13T15:42:00;25.90;99.90
2729;DHT22;1372;47.956;7.830;2023-07-13T15:44:31;26.10;99.90
2729;DHT22;1372;47.956;7.830;2023-07-13T15:47:01;26.00;99.90
2729;DHT22;1372;47.956;7.830;2023-07-13T15:49:30;25.90;99.90
2729;DHT22;1372;47.956;7.830;2023-07-13T15:52:02;25.60;99.90
2729;DHT22;1372;47.956;7.830;2023-07-13T15:54:31;25.40;99.90
2729;DHT22;1372;47.956;7.830;2023-07-13T15:57:03;25.10;99.90
2729;DHT22;1372;47.956;7.830;2023-07-13T15:59:35;25.00;99.90
2729;DHT22;1372;47.956;7.830;2023-07-13T16:02:15;24.90;99.90
2729;DHT22;1372;47.956;7.830;2023-07-13T16:04:46;24.80;99.90
2729;DHT22;1372;47.956;7.830;2023-07-13T16:07:16;24.80;99.90
2729;DHT22;1372;47.956;7.830;2023-07-13T16:09:46;24.80;99.90
2729;DHT22;1372;47.956;7.830;2023-07-13T16:12:16;24.80;99.90
2729;DHT22;1372;47.956;7.830;2023-07-13T16:14:46;24.70;99.90
2729;DHT22;1372;47.956;7.830;2023-07-13T16:17:16;24.70;99.90
2729;DHT22;1372;47.956;7.830;2023-07-13T16:19:47;24.60;99.90
2729;DHT22;1372;47.956;7.830;2023-07-13T16:22:19;24.60;99.90
2729;DHT22;1372;47.956;7.830;2023-07-13T16:24:48;24.60;99.90
2729;DHT22;1372;47.956;7.830;2023-07-13T16:27:22;24.60;99.90
2729;DHT22;1372;47.956;7.830;2023-07-13T16:29:52;24.60;99.90
2729;DHT22;1372;47.956;7.830;2023-07-13T16:32:21;24.60;99.90
2729;DHT22;1372;47.956;7.830;2023-07-13T16:34:50;24.50;99.90